sensor_id;sensor_type;location;lat;lon;timestamp;pressure;altitude;pressure_sealevel;temperature;humidity
75549;BME280;64133;56.002;37.208;2024-03-17T00:03:54;99225.65;;;0.55;67.30
75549;BME280;64133;56.002;37.208;2024-03-17T00:08:59;99216.59;;;0.44;67.56
75549;BME280;64133;56.002;37.208;2024-03-17T00:14:04;99214.05;;;0.43;67.61
75549;BME280;64133;56.002;37.208;2024-03-17T00:19:09;99221.77;;;0.34;67.91
75549;BME280;64133;56.002;37.208;2024-03-17T00:24:15;99213.23;;;0.32;68.19
75549;BME280;64133;56.002;37.208;2024-03-17T00:29:20;99213.53;;;0.35;68.11
75549;BME280;64133;56.002;37.208;2024-03-17T00:39:39;99200.93;;;0.27;68.52
75549;BME280;64133;56.002;37.208;2024-03-17T00:44:44;99207.99;;;0.13;68.46
75549;BME280;64133;56.002;37.208;2024-03-17T00:49:49;99207.78;;;0.08;68.76
75549;BME280;64133;56.002;37.208;2024-03-17T00:54:54;99201.95;;;0.03;68.97
75549;BME280;64133;56.002;37.208;2024-03-17T00:59:59;99197.22;;;0.12;68.83
75549;BME280;64133;56.002;37.208;2024-03-17T01:05:05;99194.38;;;-0.02;69.05
75549;BME280;64133;56.002;37.208;2024-03-17T01:10:10;99188.94;;;-0.06;69.33
75549;BME280;64133;56.002;37.208;2024-03-17T01:15:15;99186.20;;;-0.13;69.50
75549;BME280;64133;56.002;37.208;2024-03-17T01:20:20;99190.99;;;-0.14;69.60
75549;BME280;64133;56.002;37.208;2024-03-17T01:25:25;99181.74;;;-0.20;70.27
75549;BME280;64133;56.002;37.208;2024-03-17T01:30:30;99181.74;;;-0.30;70.25
75549;BME280;64133;56.002;37.208;2024-03-17T01:35:36;99179.23;;;-0.21;70.72
75549;BME280;64133;56.002;37.208;2024-03-17T01:40:40;99174.02;;;-0.32;70.02
75549;BME280;64133;56.002;37.208;2024-03-17T01:45:46;99163.01;;;-0.47;70.63
75549;BME280;64133;56.002;37.208;2024-03-17T01:50:51;99172.45;;;-0.46;71.02
75549;BME280;64133;56.002;37.208;2024-03-17T01:55:56;99165.59;;;-0.47;70.82
75549;BME280;64133;56.002;37.208;2024-03-17T02:01:01;99161.45;;;-0.51;71.29
75549;BME280;64133;56.002;37.208;2024-03-17T02:06:06;99159.05;;;-0.56;71.17
75549;BME280;64133;56.002;37.208;2024-03-17T02:11:11;99153.80;;;-0.54;71.66
75549;BME280;64133;56.002;37.208;2024-03-17T02:16:16;99155.55;;;-0.55;71.35
75549;BME280;64133;56.002;37.208;2024-03-17T02:21:21;99155.44;;;-0.52;71.32
75549;BME280;64133;56.002;37.208;2024-03-17T02:26:27;99152.63;;;-0.57;71.38
75549;BME280;64133;56.002;37.208;2024-03-17T02:31:32;99151.40;;;-0.59;71.43
75549;BME280;64133;56.002;37.208;2024-03-17T02:36:37;99143.28;;;-0.71;71.79
75549;BME280;64133;56.002;37.208;2024-03-17T02:41:44;99133.09;;;-0.64;72.05
75549;BME280;64133;56.002;37.208;2024-03-17T02:46:49;99136.97;;;-0.64;71.88
75549;BME280;64133;56.002;37.208;2024-03-17T02:51:54;99130.28;;;-0.70;71.82
75549;BME280;64133;56.002;37.208;2024-03-17T02:56:59;99128.83;;;-0.65;71.77
75549;BME280;64133;56.002;37.208;2024-03-17T03:02:04;99120.91;;;-0.72;72.05
75549;BME280;64133;56.002;37.208;2024-03-17T03:07:09;99119.06;;;-0.69;72.06
75549;BME280;64133;56.002;37.208;2024-03-17T03:12:14;99116.97;;;-0.71;72.20
75549;BME280;64133;56.002;37.208;2024-03-17T03:17:19;99121.28;;;-0.82;72.32
75549;BME280;64133;56.002;37.208;2024-03-17T03:22:24;99111.05;;;-0.85;72.66
75549;BME280;64133;56.002;37.208;2024-03-17T03:27:29;99111.98;;;-0.76;72.56
75549;BME280;64133;56.002;37.208;2024-03-17T03:32:34;99112.34;;;-0.85;72.60
75549;BME280;64133;56.002;37.208;2024-03-17T03:37:41;99103.27;;;-0.73;72.75
75549;BME280;64133;56.002;37.208;2024-03-17T03:42:46;99107.35;;;-0.57;72.33
75549;BME280;64133;56.002;37.208;2024-03-17T03:47:51;99105.10;;;-0.65;72.10
75549;BME280;64133;56.002;37.208;2024-03-17T03:52:56;99095.24;;;-0.77;72.58
75549;BME280;64133;56.002;37.208;2024-03-17T03:58:01;99104.59;;;-0.85;72.82
75549;BME280;64133;56.002;37.208;2024-03-17T04:03:06;99107.45;;;-0.81;72.96
75549;BME280;64133;56.002;37.208;2024-03-17T04:08:11;99103.19;;;-0.82;73.06
75549;BME280;64133;56.002;37.208;2024-03-17T04:13:16;99103.99;;;-0.69;73.21
75549;BME280;64133;56.002;37.208;2024-03-17T04:18:21;99104.38;;;-0.58;72.71
75549;BME280;64133;56.002;37.208;2024-03-17T04:23:26;99105.60;;;-0.57;72.77
75549;BME280;64133;56.002;37.208;2024-03-17T04:28:31;99098.40;;;-0.38;72.84
75549;BME280;64133;56.002;37.208;2024-03-17T04:33:37;99099.23;;;-0.38;72.39
75549;BME280;64133;56.002;37.208;2024-03-17T04:38:41;99097.95;;;-0.17;72.29
75549;BME280;64133;56.002;37.208;2024-03-17T04:43:46;99086.67;;;-0.06;72.64
75549;BME280;64133;56.002;37.208;2024-03-17T04:48:51;99082.71;;;-0.05;71.78
75549;BME280;64133;56.002;37.208;2024-03-17T04:53:56;99082.47;;;-0.19;72.01
75549;BME280;64133;56.002;37.208;2024-03-17T04:59:01;99084.76;;;-0.21;72.28
75549;BME280;64133;56.002;37.208;2024-03-17T05:04:06;99080.58;;;-0.05;72.19
75549;BME280;64133;56.002;37.208;2024-03-17T05:09:11;99085.24;;;-0.13;72.27
75549;BME280;64133;56.002;37.208;2024-03-17T05:14:16;99083.33;;;-0.08;72.74
75549;BME280;64133;56.002;37.208;2024-03-17T05:19:21;99089.30;;;0.23;71.93
75549;BME280;64133;56.002;37.208;2024-03-17T05:24:26;99091.09;;;-0.08;72.13
75549;BME280;64133;56.002;37.208;2024-03-17T05:29:31;99086.41;;;0.10;72.45
75549;BME280;64133;56.002;37.208;2024-03-17T05:34:36;99086.92;;;0.37;71.77
75549;BME280;64133;56.002;37.208;2024-03-17T05:39:40;99096.11;;;0.44;71.35
75549;BME280;64133;56.002;37.208;2024-03-17T05:44:45;99085.50;;;0.59;71.34
75549;BME280;64133;56.002;37.208;2024-03-17T05:49:54;99084.47;;;0.99;70.74
75549;BME280;64133;56.002;37.208;2024-03-17T05:54:59;99084.22;;;1.14;70.63
75549;BME280;64133;56.002;37.208;2024-03-17T06:00:05;99078.05;;;1.43;69.50
75549;BME280;64133;56.002;37.208;2024-03-17T06:05:12;99078.89;;;1.69;68.55
75549;BME280;64133;56.002;37.208;2024-03-17T06:10:15;99083.78;;;1.93;69.10
75549;BME280;64133;56.002;37.208;2024-03-17T06:15:20;99078.61;;;1.67;68.26
75549;BME280;64133;56.002;37.208;2024-03-17T06:20:28;99085.55;;;1.84;67.82
75549;BME280;64133;56.002;37.208;2024-03-17T06:25:36;99078.37;;;1.71;67.91
75549;BME280;64133;56.002;37.208;2024-03-17T06:30:38;99076.75;;;2.68;68.50
75549;BME280;64133;56.002;37.208;2024-03-17T06:35:43;99076.66;;;2.30;66.90
75549;BME280;64133;56.002;37.208;2024-03-17T06:40:51;99073.50;;;2.56;67.28
75549;BME280;64133;56.002;37.208;2024-03-17T06:45:59;99073.20;;;3.17;66.62
75549;BME280;64133;56.002;37.208;2024-03-17T06:51:04;99070.44;;;3.04;65.40
75549;BME280;64133;56.002;37.208;2024-03-17T06:56:09;99071.16;;;2.99;66.13
75549;BME280;64133;56.002;37.208;2024-03-17T07:01:14;99070.23;;;3.00;65.69
75549;BME280;64133;56.002;37.208;2024-03-17T07:06:19;99070.41;;;3.36;65.10
75549;BME280;64133;56.002;37.208;2024-03-17T07:11:24;99065.97;;;3.52;66.36
75549;BME280;64133;56.002;37.208;2024-03-17T07:16:29;99062.64;;;4.16;64.66
75549;BME280;64133;56.002;37.208;2024-03-17T07:21:34;99069.23;;;4.00;64.14
75549;BME280;64133;56.002;37.208;2024-03-17T07:26:39;99057.77;;;3.44;64.68
75549;BME280;64133;56.002;37.208;2024-03-17T07:31:44;99065.81;;;4.14;64.37
75549;BME280;64133;56.002;37.208;2024-03-17T07:36:49;99056.12;;;4.37;63.05
75549;BME280;64133;56.002;37.208;2024-03-17T07:41:57;99055.56;;;4.32;63.78
75549;BME280;64133;56.002;37.208;2024-03-17T07:47:02;99048.52;;;4.68;63.19
75549;BME280;64133;56.002;37.208;2024-03-17T07:52:07;99045.80;;;4.84;61.51
75549;BME280;64133;56.002;37.208;2024-03-17T07:57:12;99047.47;;;4.15;63.15
75549;BME280;64133;56.002;37.208;2024-03-17T08:02:17;99040.01;;;4.45;64.05
75549;BME280;64133;56.002;37.208;2024-03-17T08:07:22;99034.17;;;4.75;63.49
75549;BME280;64133;56.002;37.208;2024-03-17T08:12:29;99030.02;;;4.51;63.28
75549;BME280;64133;56.002;37.208;2024-03-17T08:17:34;99033.37;;;4.46;63.59
75549;BME280;64133;56.002;37.208;2024-03-17T08:22:39;99036.77;;;4.27;63.52
75549;BME280;64133;56.002;37.208;2024-03-17T08:27:44;99033.63;;;4.70;63.20
75549;BME280;64133;56.002;37.208;2024-03-17T08:32:49;99036.95;;;4.79;63.13
75549;BME280;64133;56.002;37.208;2024-03-17T08:37:54;99029.64;;;5.19;63.06
75549;BME280;64133;56.002;37.208;2024-03-17T08:42:59;99032.20;;;5.06;62.36
75549;BME280;64133;56.002;37.208;2024-03-17T08:48:05;99023.17;;;5.57;62.33
75549;BME280;64133;56.002;37.208;2024-03-17T08:53:10;99015.31;;;5.32;62.69
75549;BME280;64133;56.002;37.208;2024-03-17T08:58:15;99018.81;;;4.98;62.44
75549;BME280;64133;56.002;37.208;2024-03-17T09:03:20;99013.91;;;4.86;62.89
75549;BME280;64133;56.002;37.208;2024-03-17T09:08:25;99019.00;;;4.95;62.83
75549;BME280;64133;56.002;37.208;2024-03-17T09:13:30;99021.95;;;5.03;62.73
75549;BME280;64133;56.002;37.208;2024-03-17T09:18:37;99015.39;;;5.30;62.75
75549;BME280;64133;56.002;37.208;2024-03-17T09:23:42;99015.96;;;5.08;62.60
75549;BME280;64133;56.002;37.208;2024-03-17T09:28:47;99017.37;;;5.07;62.76
75549;BME280;64133;56.002;37.208;2024-03-17T09:33:52;99016.41;;;5.15;63.01
75549;BME280;64133;56.002;37.208;2024-03-17T09:38:57;99017.50;;;5.38;63.33
75549;BME280;64133;56.002;37.208;2024-03-17T09:44:03;99018.04;;;5.03;62.57
75549;BME280;64133;56.002;37.208;2024-03-17T09:49:10;99019.58;;;4.93;63.41
75549;BME280;64133;56.002;37.208;2024-03-17T09:54:18;99017.25;;;5.15;62.96
75549;BME280;64133;56.002;37.208;2024-03-17T09:59:23;99028.80;;;5.18;62.85
75549;BME280;64133;56.002;37.208;2024-03-17T10:04:33;99026.09;;;5.20;63.16
75549;BME280;64133;56.002;37.208;2024-03-17T10:09:38;99020.16;;;5.11;63.00
75549;BME280;64133;56.002;37.208;2024-03-17T10:14:43;99014.02;;;5.04;63.36
75549;BME280;64133;56.002;37.208;2024-03-17T10:19:48;99016.24;;;5.63;62.91
75549;BME280;64133;56.002;37.208;2024-03-17T10:25:01;99005.47;;;5.35;62.06
75549;BME280;64133;56.002;37.208;2024-03-17T10:30:08;99007.17;;;5.36;62.35
75549;BME280;64133;56.002;37.208;2024-03-17T10:35:30;98995.89;;;5.36;63.00
75549;BME280;64133;56.002;37.208;2024-03-17T10:40:35;99001.36;;;5.38;62.36
75549;BME280;64133;56.002;37.208;2024-03-17T10:45:41;99005.33;;;5.11;62.55
75549;BME280;64133;56.002;37.208;2024-03-17T10:50:46;99000.47;;;5.12;63.15
75549;BME280;64133;56.002;37.208;2024-03-17T10:55:51;98990.67;;;5.61;62.54
75549;BME280;64133;56.002;37.208;2024-03-17T11:00:56;98991.55;;;5.42;62.49
75549;BME280;64133;56.002;37.208;2024-03-17T11:06:03;98988.77;;;5.70;62.12
75549;BME280;64133;56.002;37.208;2024-03-17T11:11:08;98986.60;;;5.83;61.29
75549;BME280;64133;56.002;37.208;2024-03-17T11:16:27;98988.44;;;5.49;61.65
75549;BME280;64133;56.002;37.208;2024-03-17T11:21:32;98981.97;;;5.35;62.05
75549;BME280;64133;56.002;37.208;2024-03-17T11:26:37;98984.66;;;5.41;62.27
75549;BME280;64133;56.002;37.208;2024-03-17T11:31:44;98980.41;;;5.33;62.59
75549;BME280;64133;56.002;37.208;2024-03-17T11:36:49;98978.52;;;5.35;63.32
75549;BME280;64133;56.002;37.208;2024-03-17T11:41:54;98977.31;;;5.53;61.50
75549;BME280;64133;56.002;37.208;2024-03-17T11:47:00;98983.19;;;5.37;62.32
75549;BME280;64133;56.002;37.208;2024-03-17T11:52:08;98972.53;;;5.52;62.68
75549;BME280;64133;56.002;37.208;2024-03-17T11:57:11;98970.48;;;5.70;61.34
75549;BME280;64133;56.002;37.208;2024-03-17T12:02:16;98968.45;;;5.23;62.45
75549;BME280;64133;56.002;37.208;2024-03-17T12:07:21;98972.83;;;5.35;62.32
75549;BME280;64133;56.002;37.208;2024-03-17T12:12:29;98968.77;;;5.57;62.29
75549;BME280;64133;56.002;37.208;2024-03-17T12:17:35;98970.76;;;5.78;61.96
75549;BME280;64133;56.002;37.208;2024-03-17T12:22:40;98964.92;;;5.88;61.88
75549;BME280;64133;56.002;37.208;2024-03-17T12:27:46;98964.02;;;5.43;61.80
75549;BME280;64133;56.002;37.208;2024-03-17T12:32:51;98961.52;;;5.54;62.13
75549;BME280;64133;56.002;37.208;2024-03-17T12:37:56;98954.31;;;5.84;61.88
75549;BME280;64133;56.002;37.208;2024-03-17T12:43:01;98948.23;;;6.09;61.15
75549;BME280;64133;56.002;37.208;2024-03-17T12:48:11;98953.22;;;5.55;61.43
75549;BME280;64133;56.002;37.208;2024-03-17T12:53:18;98950.48;;;5.44;62.43
75549;BME280;64133;56.002;37.208;2024-03-17T12:58:23;98949.80;;;5.86;61.57
75549;BME280;64133;56.002;37.208;2024-03-17T13:03:44;98947.79;;;5.71;61.78
75549;BME280;64133;56.002;37.208;2024-03-17T13:08:53;98947.58;;;5.36;62.45
75549;BME280;64133;56.002;37.208;2024-03-17T13:13:58;98947.00;;;5.18;62.64
75549;BME280;64133;56.002;37.208;2024-03-17T13:19:03;98943.27;;;5.35;62.54
75549;BME280;64133;56.002;37.208;2024-03-17T13:24:08;98935.36;;;5.16;62.77
75549;BME280;64133;56.002;37.208;2024-03-17T13:29:13;98933.55;;;5.24;62.87
75549;BME280;64133;56.002;37.208;2024-03-17T13:34:18;98930.89;;;5.18;63.56
75549;BME280;64133;56.002;37.208;2024-03-17T13:39:26;98928.34;;;5.04;63.45
75549;BME280;64133;56.002;37.208;2024-03-17T13:44:28;98926.42;;;5.13;63.86
75549;BME280;64133;56.002;37.208;2024-03-17T13:49:34;98927.09;;;4.97;63.55
75549;BME280;64133;56.002;37.208;2024-03-17T13:54:39;98912.13;;;5.06;64.05
75549;BME280;64133;56.002;37.208;2024-03-17T13:59:44;98909.28;;;5.09;63.33
75549;BME280;64133;56.002;37.208;2024-03-17T14:04:49;98903.79;;;4.74;64.17
75549;BME280;64133;56.002;37.208;2024-03-17T14:09:54;98904.27;;;4.73;64.54
75549;BME280;64133;56.002;37.208;2024-03-17T14:14:59;98905.03;;;5.21;63.96
75549;BME280;64133;56.002;37.208;2024-03-17T14:20:07;98899.80;;;5.21;64.03
75549;BME280;64133;56.002;37.208;2024-03-17T14:25:15;98894.48;;;5.35;64.04
75549;BME280;64133;56.002;37.208;2024-03-17T14:30:20;98898.84;;;5.09;63.84
75549;BME280;64133;56.002;37.208;2024-03-17T14:35:25;98893.02;;;5.06;64.48
75549;BME280;64133;56.002;37.208;2024-03-17T14:40:31;98895.80;;;4.90;64.36
75549;BME280;64133;56.002;37.208;2024-03-17T14:45:36;98894.94;;;4.96;64.25
75549;BME280;64133;56.002;37.208;2024-03-17T14:50:41;98897.55;;;4.96;64.27
75549;BME280;64133;56.002;37.208;2024-03-17T14:55:46;98893.01;;;4.53;65.48
75549;BME280;64133;56.002;37.208;2024-03-17T15:00:51;98891.44;;;4.70;65.47
75549;BME280;64133;56.002;37.208;2024-03-17T15:05:56;98896.40;;;4.41;65.59
75549;BME280;64133;56.002;37.208;2024-03-17T15:11:01;98859.19;;;4.32;65.50
75549;BME280;64133;56.002;37.208;2024-03-17T15:16:07;98897.78;;;4.39;65.75
75549;BME280;64133;56.002;37.208;2024-03-17T15:21:12;98896.59;;;4.38;65.91
75549;BME280;64133;56.002;37.208;2024-03-17T15:26:19;98894.67;;;4.54;66.01
75549;BME280;64133;56.002;37.208;2024-03-17T15:31:24;98897.42;;;4.38;66.55
75549;BME280;64133;56.002;37.208;2024-03-17T15:36:29;98899.50;;;4.26;66.57
75549;BME280;64133;56.002;37.208;2024-03-17T15:41:34;98902.04;;;4.20;66.90
75549;BME280;64133;56.002;37.208;2024-03-17T15:46:40;98898.08;;;4.35;66.87
75549;BME280;64133;56.002;37.208;2024-03-17T15:51:44;98895.70;;;4.17;66.78
75549;BME280;64133;56.002;37.208;2024-03-17T15:56:49;98900.07;;;4.31;66.70
75549;BME280;64133;56.002;37.208;2024-03-17T16:01:54;98900.72;;;4.27;66.94
75549;BME280;64133;56.002;37.208;2024-03-17T16:06:59;98908.55;;;4.27;67.04
75549;BME280;64133;56.002;37.208;2024-03-17T16:12:05;98906.02;;;4.26;67.11
75549;BME280;64133;56.002;37.208;2024-03-17T16:17:10;98904.28;;;4.19;66.66
75549;BME280;64133;56.002;37.208;2024-03-17T16:22:15;98904.42;;;4.31;66.34
75549;BME280;64133;56.002;37.208;2024-03-17T16:27:20;98901.91;;;4.36;66.77
75549;BME280;64133;56.002;37.208;2024-03-17T16:32:25;98904.76;;;4.04;66.82
75549;BME280;64133;56.002;37.208;2024-03-17T16:37:30;98909.42;;;4.14;66.58
75549;BME280;64133;56.002;37.208;2024-03-17T16:42:35;98917.06;;;4.02;66.63
75549;BME280;64133;56.002;37.208;2024-03-17T16:47:40;98912.79;;;4.01;66.29
75549;BME280;64133;56.002;37.208;2024-03-17T16:52:45;98920.16;;;3.88;66.63
75549;BME280;64133;56.002;37.208;2024-03-17T16:57:50;98912.86;;;4.14;66.92
75549;BME280;64133;56.002;37.208;2024-03-17T17:02:55;98910.84;;;4.05;66.67
75549;BME280;64133;56.002;37.208;2024-03-17T17:08:00;98915.40;;;4.01;66.30
75549;BME280;64133;56.002;37.208;2024-03-17T17:13:06;98917.55;;;3.81;66.68
75549;BME280;64133;56.002;37.208;2024-03-17T17:23:17;98909.17;;;3.97;66.85
75549;BME280;64133;56.002;37.208;2024-03-17T17:28:22;98915.89;;;3.80;66.89
75549;BME280;64133;56.002;37.208;2024-03-17T17:33:27;98911.37;;;3.96;66.31
75549;BME280;64133;56.002;37.208;2024-03-17T17:38:32;98919.88;;;3.92;66.57
75549;BME280;64133;56.002;37.208;2024-03-17T17:43:38;98920.39;;;4.04;67.13
75549;BME280;64133;56.002;37.208;2024-03-17T17:48:46;98917.39;;;4.18;66.69
75549;BME280;64133;56.002;37.208;2024-03-17T17:53:51;98919.67;;;3.95;66.54
75549;BME280;64133;56.002;37.208;2024-03-17T17:58:56;98917.13;;;4.22;66.56
75549;BME280;64133;56.002;37.208;2024-03-17T18:04:01;98914.75;;;4.05;66.18
75549;BME280;64133;56.002;37.208;2024-03-17T18:09:06;98919.05;;;3.92;66.88
75549;BME280;64133;56.002;37.208;2024-03-17T18:14:13;98810.89;;;3.22;66.82
75549;BME280;64133;56.002;37.208;2024-03-17T18:19:18;98915.97;;;3.92;67.27
75549;BME280;64133;56.002;37.208;2024-03-17T18:24:23;98916.91;;;4.25;66.32
75549;BME280;64133;56.002;37.208;2024-03-17T18:29:28;98922.38;;;3.87;67.19
75549;BME280;64133;56.002;37.208;2024-03-17T18:34:33;98916.59;;;3.96;67.00
75549;BME280;64133;56.002;37.208;2024-03-17T18:39:39;98917.53;;;3.95;66.86
75549;BME280;64133;56.002;37.208;2024-03-17T18:44:43;98916.41;;;4.06;67.20
75549;BME280;64133;56.002;37.208;2024-03-17T18:49:51;98915.31;;;3.89;67.04
75549;BME280;64133;56.002;37.208;2024-03-17T18:54:56;98921.46;;;3.81;67.12
75549;BME280;64133;56.002;37.208;2024-03-17T19:00:01;98916.33;;;3.86;67.68
75549;BME280;64133;56.002;37.208;2024-03-17T19:05:08;98919.05;;;3.92;67.53
75549;BME280;64133;56.002;37.208;2024-03-17T19:10:14;98914.76;;;3.69;67.46
75549;BME280;64133;56.002;37.208;2024-03-17T19:15:21;98910.77;;;3.92;67.27
75549;BME280;64133;56.002;37.208;2024-03-17T19:20:26;98917.57;;;3.66;67.78
75549;BME280;64133;56.002;37.208;2024-03-17T19:25:31;98915.04;;;3.65;67.90
75549;BME280;64133;56.002;37.208;2024-03-17T19:30:36;98913.56;;;3.75;67.97
75549;BME280;64133;56.002;37.208;2024-03-17T19:35:41;98910.50;;;3.54;68.61
75549;BME280;64133;56.002;37.208;2024-03-17T19:40:54;98913.48;;;3.62;68.01
75549;BME280;64133;56.002;37.208;2024-03-17T19:46:01;98912.81;;;3.59;68.15
75549;BME280;64133;56.002;37.208;2024-03-17T19:51:09;98914.02;;;3.60;68.35
75549;BME280;64133;56.002;37.208;2024-03-17T19:56:14;98910.30;;;3.64;68.41
75549;BME280;64133;56.002;37.208;2024-03-17T20:01:19;98905.38;;;3.67;68.36
75549;BME280;64133;56.002;37.208;2024-03-17T20:06:24;98907.12;;;3.52;68.35
75549;BME280;64133;56.002;37.208;2024-03-17T20:11:31;98904.44;;;3.46;68.66
75549;BME280;64133;56.002;37.208;2024-03-17T20:16:36;98907.78;;;3.56;68.65
75549;BME280;64133;56.002;37.208;2024-03-17T20:21:41;98907.25;;;3.58;68.39
75549;BME280;64133;56.002;37.208;2024-03-17T20:26:46;98914.38;;;3.83;68.32
75549;BME280;64133;56.002;37.208;2024-03-17T20:31:51;98914.66;;;3.57;68.44
75549;BME280;64133;56.002;37.208;2024-03-17T20:36:59;98922.20;;;3.47;68.53
75549;BME280;64133;56.002;37.208;2024-03-17T20:42:04;98927.41;;;3.47;68.82
75549;BME280;64133;56.002;37.208;2024-03-17T20:47:09;98923.89;;;3.62;68.79
75549;BME280;64133;56.002;37.208;2024-03-17T20:52:14;98890.20;;;3.23;68.88
75549;BME280;64133;56.002;37.208;2024-03-17T20:57:19;98920.15;;;3.38;68.86
75549;BME280;64133;56.002;37.208;2024-03-17T21:02:24;98927.48;;;3.24;69.53
75549;BME280;64133;56.002;37.208;2024-03-17T21:07:29;98920.41;;;3.26;69.54
75549;BME280;64133;56.002;37.208;2024-03-17T21:12:33;98919.77;;;3.22;69.56
75549;BME280;64133;56.002;37.208;2024-03-17T21:17:38;98922.19;;;3.33;69.60
75549;BME280;64133;56.002;37.208;2024-03-17T21:22:44;98899.02;;;3.21;69.21
75549;BME280;64133;56.002;37.208;2024-03-17T21:27:48;98916.64;;;3.53;69.28
75549;BME280;64133;56.002;37.208;2024-03-17T21:32:53;98919.84;;;3.21;69.81
75549;BME280;64133;56.002;37.208;2024-03-17T21:37:58;98915.39;;;3.30;69.40
75549;BME280;64133;56.002;37.208;2024-03-17T21:43:03;98911.37;;;3.17;69.52
75549;BME280;64133;56.002;37.208;2024-03-17T21:48:09;98915.00;;;3.22;69.72
75549;BME280;64133;56.002;37.208;2024-03-17T21:53:14;98915.11;;;3.20;70.03
75549;BME280;64133;56.002;37.208;2024-03-17T21:58:18;98921.59;;;3.13;69.97
75549;BME280;64133;56.002;37.208;2024-03-17T22:03:23;98920.41;;;3.19;70.44
75549;BME280;64133;56.002;37.208;2024-03-17T22:08:28;98925.98;;;3.20;70.03
75549;BME280;64133;56.002;37.208;2024-03-17T22:13:33;98915.55;;;3.13;70.14
75549;BME280;64133;56.002;37.208;2024-03-17T22:18:38;98914.44;;;3.17;70.31
75549;BME280;64133;56.002;37.208;2024-03-17T22:23:44;98913.09;;;2.95;70.75
75549;BME280;64133;56.002;37.208;2024-03-17T22:28:49;98919.20;;;3.24;70.90
75549;BME280;64133;56.002;37.208;2024-03-17T22:33:54;98919.59;;;3.33;70.04
75549;BME280;64133;56.002;37.208;2024-03-17T22:38:59;98916.81;;;3.36;70.38
75549;BME280;64133;56.002;37.208;2024-03-17T22:44:04;98918.48;;;3.51;69.74
75549;BME280;64133;56.002;37.208;2024-03-17T22:49:09;98917.44;;;3.25;69.97
75549;BME280;64133;56.002;37.208;2024-03-17T22:54:14;98919.97;;;3.26;70.26
75549;BME280;64133;56.002;37.208;2024-03-17T22:59:18;98920.70;;;3.28;69.72
75549;BME280;64133;56.002;37.208;2024-03-17T23:04:23;98913.78;;;3.06;70.75
75549;BME280;64133;56.002;37.208;2024-03-17T23:09:28;98927.20;;;3.28;70.21
75549;BME280;64133;56.002;37.208;2024-03-17T23:14:33;98931.23;;;2.97;70.80
75549;BME280;64133;56.002;37.208;2024-03-17T23:19:38;98923.30;;;2.91;71.33
75549;BME280;64133;56.002;37.208;2024-03-17T23:24:43;98922.77;;;2.93;71.46
75549;BME280;64133;56.002;37.208;2024-03-17T23:29:48;98924.63;;;2.98;71.73
75549;BME280;64133;56.002;37.208;2024-03-17T23:34:53;98917.86;;;3.03;71.21
75549;BME280;64133;56.002;37.208;2024-03-17T23:39:59;98923.72;;;3.07;71.44
75549;BME280;64133;56.002;37.208;2024-03-17T23:45:05;98918.91;;;3.15;71.26
75549;BME280;64133;56.002;37.208;2024-03-17T23:50:10;98921.66;;;3.05;71.50
75549;BME280;64133;56.002;37.208;2024-03-17T23:55:15;98919.42;;;2.98;71.74
